sensor_id;sensor_type;location;lat;lon;timestamp;P1;durP1;ratioP1;P2;durP2;ratioP2
11076;SDS011;5591;42.626;23.380;2022-12-08T00:01:06;49.27;;;32.47;;
11076;SDS011;5591;42.626;23.380;2022-12-08T00:03:33;60.03;;;36.13;;
11076;SDS011;5591;42.626;23.380;2022-12-08T00:06:01;62.20;;;37.53;;
11076;SDS011;5591;42.626;23.380;2022-12-08T00:08:46;69.00;;;42.10;;
11076;SDS011;5591;42.626;23.380;2022-12-08T00:11:31;79.00;;;45.00;;
11076;SDS011;5591;42.626;23.380;2022-12-08T00:13:58;70.50;;;41.13;;
11076;SDS011;5591;42.626;23.380;2022-12-08T00:16:26;64.47;;;39.80;;
11076;SDS011;5591;42.626;23.380;2022-12-08T00:18:53;63.67;;;38.67;;
11076;SDS011;5591;42.626;23.380;2022-12-08T00:21:20;62.67;;;37.80;;
11076;SDS011;5591;42.626;23.380;2022-12-08T00:23:46;56.37;;;36.20;;
11076;SDS011;5591;42.626;23.380;2022-12-08T00:26:13;58.50;;;34.33;;
11076;SDS011;5591;42.626;23.380;2022-12-08T00:28:40;56.80;;;36.03;;
11076;SDS011;5591;42.626;23.380;2022-12-08T00:31:07;58.90;;;37.30;;
11076;SDS011;5591;42.626;23.380;2022-12-08T00:33:36;57.83;;;37.20;;
11076;SDS011;5591;42.626;23.380;2022-12-08T00:36:06;62.27;;;38.67;;
11076;SDS011;5591;42.626;23.380;2022-12-08T00:38:34;65.23;;;38.40;;
11076;SDS011;5591;42.626;23.380;2022-12-08T00:41:01;66.33;;;39.70;;
11076;SDS011;5591;42.626;23.380;2022-12-08T00:43:29;65.83;;;41.63;;
11076;SDS011;5591;42.626;23.380;2022-12-08T00:45:55;66.77;;;40.80;;
11076;SDS011;5591;42.626;23.380;2022-12-08T00:48:22;68.50;;;38.90;;
11076;SDS011;5591;42.626;23.380;2022-12-08T00:50:50;59.20;;;38.73;;
11076;SDS011;5591;42.626;23.380;2022-12-08T00:53:17;68.07;;;40.03;;
11076;SDS011;5591;42.626;23.380;2022-12-08T00:55:44;61.03;;;38.73;;
11076;SDS011;5591;42.626;23.380;2022-12-08T00:58:10;64.40;;;37.83;;
11076;SDS011;5591;42.626;23.380;2022-12-08T01:00:38;64.57;;;39.23;;
11076;SDS011;5591;42.626;23.380;2022-12-08T01:03:06;69.67;;;37.77;;
11076;SDS011;5591;42.626;23.380;2022-12-08T01:05:35;59.20;;;37.33;;
11076;SDS011;5591;42.626;23.380;2022-12-08T01:08:05;59.87;;;35.73;;
11076;SDS011;5591;42.626;23.380;2022-12-08T01:10:33;58.40;;;34.73;;
11076;SDS011;5591;42.626;23.380;2022-12-08T01:13:01;58.70;;;33.80;;
11076;SDS011;5591;42.626;23.380;2022-12-08T01:15:27;47.77;;;33.20;;
11076;SDS011;5591;42.626;23.380;2022-12-08T01:17:54;52.77;;;33.83;;
11076;SDS011;5591;42.626;23.380;2022-12-08T01:20:21;52.80;;;33.27;;
11076;SDS011;5591;42.626;23.380;2022-12-08T01:22:48;51.60;;;32.20;;
11076;SDS011;5591;42.626;23.380;2022-12-08T01:25:16;45.63;;;29.37;;
11076;SDS011;5591;42.626;23.380;2022-12-08T01:27:43;46.27;;;26.33;;
11076;SDS011;5591;42.626;23.380;2022-12-08T01:30:10;47.43;;;29.23;;
11076;SDS011;5591;42.626;23.380;2022-12-08T01:32:38;46.43;;;30.03;;
11076;SDS011;5591;42.626;23.380;2022-12-08T01:35:05;44.23;;;30.77;;
11076;SDS011;5591;42.626;23.380;2022-12-08T01:37:32;47.07;;;30.43;;
11076;SDS011;5591;42.626;23.380;2022-12-08T01:39:58;42.13;;;29.47;;
11076;SDS011;5591;42.626;23.380;2022-12-08T01:42:27;43.40;;;28.27;;
11076;SDS011;5591;42.626;23.380;2022-12-08T01:44:58;40.50;;;23.93;;
11076;SDS011;5591;42.626;23.380;2022-12-08T01:47:28;33.63;;;23.43;;
11076;SDS011;5591;42.626;23.380;2022-12-08T01:49:59;38.70;;;23.93;;
11076;SDS011;5591;42.626;23.380;2022-12-08T01:52:28;39.17;;;25.27;;
11076;SDS011;5591;42.626;23.380;2022-12-08T01:54:59;43.03;;;25.93;;
11076;SDS011;5591;42.626;23.380;2022-12-08T01:57:32;43.27;;;27.33;;
11076;SDS011;5591;42.626;23.380;2022-12-08T02:00:05;42.07;;;26.33;;
11076;SDS011;5591;42.626;23.380;2022-12-08T02:02:35;41.13;;;25.17;;
11076;SDS011;5591;42.626;23.380;2022-12-08T02:05:10;37.47;;;26.00;;
11076;SDS011;5591;42.626;23.380;2022-12-08T02:07:38;44.10;;;25.93;;
11076;SDS011;5591;42.626;23.380;2022-12-08T02:10:06;37.43;;;23.50;;
11076;SDS011;5591;42.626;23.380;2022-12-08T02:12:35;36.50;;;24.90;;
11076;SDS011;5591;42.626;23.380;2022-12-08T02:15:02;37.00;;;24.30;;
11076;SDS011;5591;42.626;23.380;2022-12-08T02:17:33;38.37;;;24.50;;
11076;SDS011;5591;42.626;23.380;2022-12-08T02:20:22;32.67;;;22.40;;
11076;SDS011;5591;42.626;23.380;2022-12-08T02:22:57;29.93;;;20.23;;
11076;SDS011;5591;42.626;23.380;2022-12-08T02:25:32;33.70;;;21.57;;
11076;SDS011;5591;42.626;23.380;2022-12-08T02:28:12;28.87;;;18.90;;
11076;SDS011;5591;42.626;23.380;2022-12-08T02:31:00;29.23;;;19.63;;
11076;SDS011;5591;42.626;23.380;2022-12-08T02:33:50;24.80;;;15.97;;
11076;SDS011;5591;42.626;23.380;2022-12-08T02:36:31;20.63;;;15.10;;
11076;SDS011;5591;42.626;23.380;2022-12-08T02:39:07;33.53;;;20.00;;
11076;SDS011;5591;42.626;23.380;2022-12-08T02:41:40;40.27;;;23.97;;
11076;SDS011;5591;42.626;23.380;2022-12-08T02:44:14;42.70;;;26.10;;
11076;SDS011;5591;42.626;23.380;2022-12-08T02:46:47;47.23;;;27.83;;
11076;SDS011;5591;42.626;23.380;2022-12-08T02:49:18;44.23;;;28.03;;
11076;SDS011;5591;42.626;23.380;2022-12-08T02:51:45;44.60;;;26.87;;
11076;SDS011;5591;42.626;23.380;2022-12-08T02:54:12;37.03;;;23.13;;
11076;SDS011;5591;42.626;23.380;2022-12-08T02:56:54;33.67;;;21.50;;
11076;SDS011;5591;42.626;23.380;2022-12-08T02:59:35;30.70;;;20.67;;
11076;SDS011;5591;42.626;23.380;2022-12-08T03:02:17;29.87;;;19.37;;
11076;SDS011;5591;42.626;23.380;2022-12-08T03:05:02;35.40;;;21.97;;
11076;SDS011;5591;42.626;23.380;2022-12-08T03:07:39;36.73;;;22.87;;
11076;SDS011;5591;42.626;23.380;2022-12-08T03:10:14;40.17;;;23.90;;
11076;SDS011;5591;42.626;23.380;2022-12-08T03:12:45;39.03;;;24.60;;
11076;SDS011;5591;42.626;23.380;2022-12-08T03:15:15;38.87;;;24.53;;
11076;SDS011;5591;42.626;23.380;2022-12-08T03:17:48;38.80;;;25.30;;
11076;SDS011;5591;42.626;23.380;2022-12-08T03:20:22;40.57;;;25.17;;
11076;SDS011;5591;42.626;23.380;2022-12-08T03:22:53;43.57;;;25.47;;
11076;SDS011;5591;42.626;23.380;2022-12-08T03:25:24;40.60;;;25.03;;
11076;SDS011;5591;42.626;23.380;2022-12-08T03:27:53;40.20;;;24.93;;
11076;SDS011;5591;42.626;23.380;2022-12-08T03:30:19;43.37;;;25.83;;
11076;SDS011;5591;42.626;23.380;2022-12-08T03:32:47;40.30;;;25.13;;
11076;SDS011;5591;42.626;23.380;2022-12-08T03:35:19;42.17;;;24.80;;
11076;SDS011;5591;42.626;23.380;2022-12-08T03:37:51;39.57;;;25.00;;
11076;SDS011;5591;42.626;23.380;2022-12-08T03:40:26;36.37;;;22.27;;
11076;SDS011;5591;42.626;23.380;2022-12-08T03:42:53;35.07;;;20.27;;
11076;SDS011;5591;42.626;23.380;2022-12-08T03:45:19;27.33;;;18.40;;
11076;SDS011;5591;42.626;23.380;2022-12-08T03:47:46;33.33;;;20.90;;
11076;SDS011;5591;42.626;23.380;2022-12-08T03:50:13;33.33;;;21.13;;
11076;SDS011;5591;42.626;23.380;2022-12-08T03:52:41;29.93;;;21.27;;
11076;SDS011;5591;42.626;23.380;2022-12-08T03:55:08;29.27;;;19.43;;
11076;SDS011;5591;42.626;23.380;2022-12-08T03:57:35;30.60;;;20.80;;
11076;SDS011;5591;42.626;23.380;2022-12-08T04:00:02;28.70;;;19.27;;
11076;SDS011;5591;42.626;23.380;2022-12-08T04:02:30;28.20;;;18.03;;
11076;SDS011;5591;42.626;23.380;2022-12-08T04:04:57;28.80;;;18.30;;
11076;SDS011;5591;42.626;23.380;2022-12-08T04:07:23;25.60;;;17.03;;
11076;SDS011;5591;42.626;23.380;2022-12-08T04:09:52;20.73;;;15.70;;
11076;SDS011;5591;42.626;23.380;2022-12-08T04:12:18;19.33;;;14.40;;
11076;SDS011;5591;42.626;23.380;2022-12-08T04:14:45;21.00;;;14.60;;
11076;SDS011;5591;42.626;23.380;2022-12-08T04:17:14;18.90;;;14.13;;
11076;SDS011;5591;42.626;23.380;2022-12-08T04:19:41;20.27;;;13.97;;
11076;SDS011;5591;42.626;23.380;2022-12-08T04:22:08;18.83;;;13.57;;
11076;SDS011;5591;42.626;23.380;2022-12-08T04:24:35;23.17;;;14.53;;
11076;SDS011;5591;42.626;23.380;2022-12-08T04:27:05;22.73;;;14.63;;
11076;SDS011;5591;42.626;23.380;2022-12-08T04:29:32;20.63;;;14.97;;
11076;SDS011;5591;42.626;23.380;2022-12-08T04:32:00;29.43;;;19.13;;
11076;SDS011;5591;42.626;23.380;2022-12-08T04:34:26;23.03;;;14.23;;
11076;SDS011;5591;42.626;23.380;2022-12-08T04:36:53;19.57;;;13.90;;
11076;SDS011;5591;42.626;23.380;2022-12-08T04:39:20;20.57;;;13.43;;
11076;SDS011;5591;42.626;23.380;2022-12-08T04:41:47;20.43;;;13.70;;
11076;SDS011;5591;42.626;23.380;2022-12-08T04:44:15;16.93;;;12.80;;
11076;SDS011;5591;42.626;23.380;2022-12-08T04:46:42;17.30;;;12.30;;
11076;SDS011;5591;42.626;23.380;2022-12-08T04:49:09;16.63;;;12.70;;
11076;SDS011;5591;42.626;23.380;2022-12-08T04:51:35;21.17;;;15.67;;
11076;SDS011;5591;42.626;23.380;2022-12-08T04:54:02;29.70;;;21.40;;
11076;SDS011;5591;42.626;23.380;2022-12-08T04:56:29;17.73;;;13.07;;
11076;SDS011;5591;42.626;23.380;2022-12-08T04:58:56;15.30;;;11.70;;
11076;SDS011;5591;42.626;23.380;2022-12-08T05:01:24;16.13;;;11.97;;
11076;SDS011;5591;42.626;23.380;2022-12-08T05:03:51;15.83;;;12.43;;
11076;SDS011;5591;42.626;23.380;2022-12-08T05:06:18;17.67;;;12.50;;
11076;SDS011;5591;42.626;23.380;2022-12-08T05:08:44;18.57;;;13.00;;
11076;SDS011;5591;42.626;23.380;2022-12-08T05:11:11;18.90;;;13.70;;
11076;SDS011;5591;42.626;23.380;2022-12-08T05:13:38;17.37;;;12.13;;
11076;SDS011;5591;42.626;23.380;2022-12-08T05:16:07;18.93;;;12.90;;
11076;SDS011;5591;42.626;23.380;2022-12-08T05:18:37;24.03;;;16.13;;
11076;SDS011;5591;42.626;23.380;2022-12-08T05:21:04;16.40;;;12.50;;
11076;SDS011;5591;42.626;23.380;2022-12-08T05:23:32;20.73;;;12.53;;
11076;SDS011;5591;42.626;23.380;2022-12-08T05:25:59;16.30;;;12.40;;
11076;SDS011;5591;42.626;23.380;2022-12-08T05:28:26;15.33;;;12.03;;
11076;SDS011;5591;42.626;23.380;2022-12-08T05:30:53;15.73;;;11.80;;
11076;SDS011;5591;42.626;23.380;2022-12-08T05:33:20;14.70;;;10.97;;
11076;SDS011;5591;42.626;23.380;2022-12-08T05:35:48;14.53;;;11.33;;
11076;SDS011;5591;42.626;23.380;2022-12-08T05:38:14;14.10;;;11.30;;
11076;SDS011;5591;42.626;23.380;2022-12-08T05:40:42;15.80;;;11.03;;
11076;SDS011;5591;42.626;23.380;2022-12-08T05:43:09;14.20;;;11.07;;
11076;SDS011;5591;42.626;23.380;2022-12-08T05:45:36;17.60;;;12.07;;
11076;SDS011;5591;42.626;23.380;2022-12-08T05:48:03;18.57;;;12.20;;
11076;SDS011;5591;42.626;23.380;2022-12-08T05:50:30;14.73;;;11.37;;
11076;SDS011;5591;42.626;23.380;2022-12-08T05:52:58;16.30;;;11.60;;
11076;SDS011;5591;42.626;23.380;2022-12-08T05:55:25;17.23;;;11.00;;
11076;SDS011;5591;42.626;23.380;2022-12-08T05:57:52;14.83;;;10.83;;
11076;SDS011;5591;42.626;23.380;2022-12-08T06:00:19;16.10;;;11.50;;
11076;SDS011;5591;42.626;23.380;2022-12-08T06:02:46;15.40;;;11.17;;
11076;SDS011;5591;42.626;23.380;2022-12-08T06:05:13;15.20;;;10.63;;
11076;SDS011;5591;42.626;23.380;2022-12-08T06:07:40;14.77;;;9.83;;
11076;SDS011;5591;42.626;23.380;2022-12-08T06:10:08;12.80;;;10.10;;
11076;SDS011;5591;42.626;23.380;2022-12-08T06:12:36;13.70;;;10.33;;
11076;SDS011;5591;42.626;23.380;2022-12-08T06:15:03;14.70;;;11.63;;
11076;SDS011;5591;42.626;23.380;2022-12-08T06:17:30;16.47;;;11.00;;
11076;SDS011;5591;42.626;23.380;2022-12-08T06:19:57;16.97;;;12.10;;
11076;SDS011;5591;42.626;23.380;2022-12-08T06:22:24;20.77;;;13.03;;
11076;SDS011;5591;42.626;23.380;2022-12-08T06:24:50;20.63;;;12.83;;
11076;SDS011;5591;42.626;23.380;2022-12-08T06:27:19;19.37;;;13.10;;
11076;SDS011;5591;42.626;23.380;2022-12-08T06:29:45;20.80;;;14.67;;
11076;SDS011;5591;42.626;23.380;2022-12-08T06:32:12;18.17;;;13.63;;
11076;SDS011;5591;42.626;23.380;2022-12-08T06:34:39;21.93;;;14.90;;
11076;SDS011;5591;42.626;23.380;2022-12-08T06:37:06;21.17;;;15.00;;
11076;SDS011;5591;42.626;23.380;2022-12-08T06:39:32;20.30;;;14.90;;
11076;SDS011;5591;42.626;23.380;2022-12-08T06:41:59;21.73;;;15.23;;
11076;SDS011;5591;42.626;23.380;2022-12-08T06:44:54;22.20;;;14.87;;
11076;SDS011;5591;42.626;23.380;2022-12-08T06:47:21;21.23;;;15.07;;
11076;SDS011;5591;42.626;23.380;2022-12-08T06:49:48;24.47;;;16.27;;
11076;SDS011;5591;42.626;23.380;2022-12-08T06:52:14;22.03;;;14.93;;
11076;SDS011;5591;42.626;23.380;2022-12-08T06:54:41;25.00;;;15.93;;
11076;SDS011;5591;42.626;23.380;2022-12-08T06:57:08;24.00;;;16.43;;
11076;SDS011;5591;42.626;23.380;2022-12-08T06:59:35;27.40;;;19.43;;
11076;SDS011;5591;42.626;23.380;2022-12-08T07:02:03;33.63;;;23.40;;
11076;SDS011;5591;42.626;23.380;2022-12-08T07:04:30;39.43;;;25.30;;
11076;SDS011;5591;42.626;23.380;2022-12-08T07:06:56;44.03;;;28.00;;
11076;SDS011;5591;42.626;23.380;2022-12-08T07:09:23;37.00;;;27.60;;
11076;SDS011;5591;42.626;23.380;2022-12-08T07:11:50;40.73;;;26.87;;
11076;SDS011;5591;42.626;23.380;2022-12-08T07:14:17;45.00;;;25.33;;
11076;SDS011;5591;42.626;23.380;2022-12-08T07:16:44;36.77;;;25.90;;
11076;SDS011;5591;42.626;23.380;2022-12-08T07:19:12;39.73;;;29.27;;
11076;SDS011;5591;42.626;23.380;2022-12-08T07:21:39;39.13;;;24.17;;
11076;SDS011;5591;42.626;23.380;2022-12-08T07:24:06;33.97;;;23.37;;
11076;SDS011;5591;42.626;23.380;2022-12-08T07:26:33;41.20;;;25.33;;
11076;SDS011;5591;42.626;23.380;2022-12-08T07:29:00;34.73;;;23.87;;
11076;SDS011;5591;42.626;23.380;2022-12-08T07:31:27;38.87;;;24.20;;
11076;SDS011;5591;42.626;23.380;2022-12-08T07:33:53;34.17;;;22.97;;
11076;SDS011;5591;42.626;23.380;2022-12-08T07:36:22;29.57;;;21.43;;
11076;SDS011;5591;42.626;23.380;2022-12-08T07:38:50;35.50;;;23.20;;
11076;SDS011;5591;42.626;23.380;2022-12-08T07:41:19;38.23;;;26.87;;
11076;SDS011;5591;42.626;23.380;2022-12-08T07:43:47;42.67;;;27.60;;
11076;SDS011;5591;42.626;23.380;2022-12-08T07:46:15;40.17;;;28.23;;
11076;SDS011;5591;42.626;23.380;2022-12-08T07:48:44;43.13;;;26.83;;
11076;SDS011;5591;42.626;23.380;2022-12-08T07:51:12;39.83;;;27.60;;
11076;SDS011;5591;42.626;23.380;2022-12-08T07:53:42;41.20;;;26.73;;
11076;SDS011;5591;42.626;23.380;2022-12-08T07:56:10;40.67;;;27.67;;
11076;SDS011;5591;42.626;23.380;2022-12-08T07:58:38;40.43;;;26.97;;
11076;SDS011;5591;42.626;23.380;2022-12-08T08:01:05;46.33;;;28.03;;
11076;SDS011;5591;42.626;23.380;2022-12-08T08:03:32;40.17;;;27.63;;
11076;SDS011;5591;42.626;23.380;2022-12-08T08:06:01;46.40;;;27.43;;
11076;SDS011;5591;42.626;23.380;2022-12-08T08:08:28;49.53;;;30.77;;
11076;SDS011;5591;42.626;23.380;2022-12-08T08:10:57;60.67;;;44.47;;
11076;SDS011;5591;42.626;23.380;2022-12-08T08:13:23;40.13;;;26.07;;
11076;SDS011;5591;42.626;23.380;2022-12-08T08:15:50;49.37;;;33.33;;
11076;SDS011;5591;42.626;23.380;2022-12-08T08:18:17;37.60;;;24.70;;
11076;SDS011;5591;42.626;23.380;2022-12-08T08:20:44;38.40;;;24.33;;
11076;SDS011;5591;42.626;23.380;2022-12-08T08:23:11;30.63;;;21.70;;
11076;SDS011;5591;42.626;23.380;2022-12-08T08:25:37;31.77;;;23.47;;
11076;SDS011;5591;42.626;23.380;2022-12-08T08:28:08;33.97;;;23.70;;
11076;SDS011;5591;42.626;23.380;2022-12-08T08:30:36;35.47;;;24.73;;
11076;SDS011;5591;42.626;23.380;2022-12-08T08:33:07;36.17;;;24.23;;
11076;SDS011;5591;42.626;23.380;2022-12-08T08:35:33;38.23;;;24.33;;
11076;SDS011;5591;42.626;23.380;2022-12-08T08:38:00;35.77;;;22.43;;
11076;SDS011;5591;42.626;23.380;2022-12-08T08:40:27;29.27;;;22.07;;
11076;SDS011;5591;42.626;23.380;2022-12-08T08:42:54;36.70;;;22.97;;
11076;SDS011;5591;42.626;23.380;2022-12-08T08:45:22;31.33;;;22.83;;
11076;SDS011;5591;42.626;23.380;2022-12-08T08:47:49;34.07;;;21.93;;
11076;SDS011;5591;42.626;23.380;2022-12-08T08:50:16;24.77;;;19.87;;
11076;SDS011;5591;42.626;23.380;2022-12-08T08:52:42;29.00;;;19.27;;
11076;SDS011;5591;42.626;23.380;2022-12-08T08:55:09;31.33;;;20.17;;
11076;SDS011;5591;42.626;23.380;2022-12-08T08:57:36;34.90;;;22.03;;
11076;SDS011;5591;42.626;23.380;2022-12-08T09:00:04;33.00;;;22.57;;
11076;SDS011;5591;42.626;23.380;2022-12-08T09:02:35;27.83;;;21.00;;
11076;SDS011;5591;42.626;23.380;2022-12-08T09:05:02;27.20;;;21.03;;
11076;SDS011;5591;42.626;23.380;2022-12-08T09:07:30;26.10;;;20.57;;
11076;SDS011;5591;42.626;23.380;2022-12-08T09:09:57;30.87;;;19.97;;
11076;SDS011;5591;42.626;23.380;2022-12-08T09:12:24;27.73;;;19.60;;
11076;SDS011;5591;42.626;23.380;2022-12-08T09:14:50;28.70;;;19.53;;
11076;SDS011;5591;42.626;23.380;2022-12-08T09:17:17;29.23;;;18.67;;
11076;SDS011;5591;42.626;23.380;2022-12-08T09:19:45;24.53;;;17.00;;
11076;SDS011;5591;42.626;23.380;2022-12-08T09:22:13;25.07;;;16.10;;
11076;SDS011;5591;42.626;23.380;2022-12-08T09:24:40;26.30;;;15.90;;
11076;SDS011;5591;42.626;23.380;2022-12-08T09:27:07;19.97;;;15.87;;
11076;SDS011;5591;42.626;23.380;2022-12-08T09:29:34;22.97;;;16.93;;
11076;SDS011;5591;42.626;23.380;2022-12-08T09:32:00;22.37;;;17.43;;
11076;SDS011;5591;42.626;23.380;2022-12-08T09:34:27;25.67;;;16.43;;
11076;SDS011;5591;42.626;23.380;2022-12-08T09:36:56;26.67;;;18.53;;
11076;SDS011;5591;42.626;23.380;2022-12-08T09:39:23;31.33;;;18.30;;
11076;SDS011;5591;42.626;23.380;2022-12-08T09:41:57;26.60;;;18.30;;
11076;SDS011;5591;42.626;23.380;2022-12-08T09:47:20;23.53;;;16.20;;
11076;SDS011;5591;42.626;23.380;2022-12-08T09:49:51;21.47;;;16.77;;
11076;SDS011;5591;42.626;23.380;2022-12-08T09:52:25;21.90;;;14.17;;
11076;SDS011;5591;42.626;23.380;2022-12-08T09:54:55;21.23;;;15.67;;
11076;SDS011;5591;42.626;23.380;2022-12-08T09:57:25;20.50;;;14.77;;
11076;SDS011;5591;42.626;23.380;2022-12-08T09:59:54;25.07;;;16.20;;
11076;SDS011;5591;42.626;23.380;2022-12-08T10:02:27;25.47;;;14.93;;
11076;SDS011;5591;42.626;23.380;2022-12-08T10:04:55;22.83;;;15.03;;
11076;SDS011;5591;42.626;23.380;2022-12-08T10:07:26;26.07;;;16.13;;
11076;SDS011;5591;42.626;23.380;2022-12-08T10:10:01;22.50;;;16.27;;
11076;SDS011;5591;42.626;23.380;2022-12-08T10:12:35;25.43;;;16.17;;
11076;SDS011;5591;42.626;23.380;2022-12-08T10:15:21;27.10;;;14.97;;
11076;SDS011;5591;42.626;23.380;2022-12-08T10:18:00;18.60;;;14.83;;
11076;SDS011;5591;42.626;23.380;2022-12-08T10:20:33;18.17;;;14.57;;
11076;SDS011;5591;42.626;23.380;2022-12-08T10:23:06;24.67;;;15.20;;
11076;SDS011;5591;42.626;23.380;2022-12-08T10:25:40;25.13;;;15.73;;
11076;SDS011;5591;42.626;23.380;2022-12-08T10:28:11;25.13;;;15.20;;
11076;SDS011;5591;42.626;23.380;2022-12-08T10:30:38;19.33;;;14.40;;
11076;SDS011;5591;42.626;23.380;2022-12-08T10:33:05;17.70;;;14.93;;
11076;SDS011;5591;42.626;23.380;2022-12-08T10:35:43;26.13;;;15.50;;
11076;SDS011;5591;42.626;23.380;2022-12-08T10:38:17;20.70;;;15.30;;
11076;SDS011;5591;42.626;23.380;2022-12-08T10:40:46;22.73;;;15.90;;
11076;SDS011;5591;42.626;23.380;2022-12-08T10:43:16;21.03;;;16.47;;
11076;SDS011;5591;42.626;23.380;2022-12-08T10:45:46;22.87;;;16.10;;
11076;SDS011;5591;42.626;23.380;2022-12-08T10:48:13;28.33;;;17.60;;
11076;SDS011;5591;42.626;23.380;2022-12-08T10:50:43;23.60;;;17.60;;
11076;SDS011;5591;42.626;23.380;2022-12-08T10:53:14;29.93;;;18.40;;
11076;SDS011;5591;42.626;23.380;2022-12-08T10:55:47;24.67;;;16.77;;
11076;SDS011;5591;42.626;23.380;2022-12-08T10:58:25;22.70;;;17.50;;
11076;SDS011;5591;42.626;23.380;2022-12-08T11:00:54;23.37;;;16.43;;
11076;SDS011;5591;42.626;23.380;2022-12-08T11:03:24;23.80;;;16.00;;
11076;SDS011;5591;42.626;23.380;2022-12-08T11:05:55;26.27;;;16.40;;
11076;SDS011;5591;42.626;23.380;2022-12-08T11:08:24;22.97;;;15.90;;
11076;SDS011;5591;42.626;23.380;2022-12-08T11:10:52;23.47;;;16.80;;
11076;SDS011;5591;42.626;23.380;2022-12-08T11:13:21;24.17;;;17.23;;
11076;SDS011;5591;42.626;23.380;2022-12-08T11:15:50;27.57;;;19.37;;
11076;SDS011;5591;42.626;23.380;2022-12-08T11:18:26;24.60;;;18.70;;
11076;SDS011;5591;42.626;23.380;2022-12-08T11:20:55;25.23;;;17.17;;
11076;SDS011;5591;42.626;23.380;2022-12-08T11:23:25;25.73;;;16.47;;
11076;SDS011;5591;42.626;23.380;2022-12-08T11:25:55;25.93;;;15.97;;
11076;SDS011;5591;42.626;23.380;2022-12-08T11:28:26;24.40;;;15.73;;
11076;SDS011;5591;42.626;23.380;2022-12-08T11:30:55;28.37;;;16.33;;
11076;SDS011;5591;42.626;23.380;2022-12-08T11:33:26;22.30;;;15.40;;
11076;SDS011;5591;42.626;23.380;2022-12-08T11:35:55;20.70;;;15.03;;
11076;SDS011;5591;42.626;23.380;2022-12-08T11:38:25;19.07;;;13.83;;
11076;SDS011;5591;42.626;23.380;2022-12-08T11:40:56;18.87;;;13.47;;
11076;SDS011;5591;42.626;23.380;2022-12-08T11:43:28;22.00;;;13.90;;
11076;SDS011;5591;42.626;23.380;2022-12-08T11:46:08;17.20;;;12.43;;
11076;SDS011;5591;42.626;23.380;2022-12-08T11:48:41;15.70;;;11.57;;
11076;SDS011;5591;42.626;23.380;2022-12-08T11:51:12;18.23;;;13.20;;
11076;SDS011;5591;42.626;23.380;2022-12-08T11:53:45;17.53;;;11.90;;
11076;SDS011;5591;42.626;23.380;2022-12-08T11:56:20;14.80;;;11.33;;
11076;SDS011;5591;42.626;23.380;2022-12-08T11:58:52;13.50;;;10.10;;
11076;SDS011;5591;42.626;23.380;2022-12-08T12:01:22;13.23;;;9.50;;
11076;SDS011;5591;42.626;23.380;2022-12-08T12:03:53;13.20;;;9.87;;
11076;SDS011;5591;42.626;23.380;2022-12-08T12:06:32;14.03;;;10.57;;
11076;SDS011;5591;42.626;23.380;2022-12-08T12:09:20;13.63;;;10.03;;
11076;SDS011;5591;42.626;23.380;2022-12-08T12:12:02;12.43;;;10.43;;
11076;SDS011;5591;42.626;23.380;2022-12-08T12:17:43;14.50;;;10.57;;
11076;SDS011;5591;42.626;23.380;2022-12-08T12:20:15;16.33;;;11.33;;
11076;SDS011;5591;42.626;23.380;2022-12-08T12:22:45;15.43;;;10.80;;
11076;SDS011;5591;42.626;23.380;2022-12-08T12:25:18;16.83;;;10.90;;
11076;SDS011;5591;42.626;23.380;2022-12-08T12:27:49;16.20;;;10.33;;
11076;SDS011;5591;42.626;23.380;2022-12-08T12:30:19;11.40;;;8.53;;
11076;SDS011;5591;42.626;23.380;2022-12-08T12:32:50;14.50;;;8.80;;
11076;SDS011;5591;42.626;23.380;2022-12-08T12:35:23;13.17;;;9.10;;
11076;SDS011;5591;42.626;23.380;2022-12-08T12:37:56;22.00;;;9.70;;
11076;SDS011;5591;42.626;23.380;2022-12-08T12:40:26;12.20;;;8.27;;
11076;SDS011;5591;42.626;23.380;2022-12-08T12:48:54;15.60;;;9.43;;
11076;SDS011;5591;42.626;23.380;2022-12-08T12:51:59;12.83;;;9.13;;
11076;SDS011;5591;42.626;23.380;2022-12-08T12:54:26;14.40;;;9.30;;
11076;SDS011;5591;42.626;23.380;2022-12-08T12:56:54;13.77;;;9.77;;
11076;SDS011;5591;42.626;23.380;2022-12-08T12:59:42;13.17;;;9.43;;
11076;SDS011;5591;42.626;23.380;2022-12-08T13:02:15;13.70;;;9.03;;
11076;SDS011;5591;42.626;23.380;2022-12-08T13:04:45;15.77;;;9.80;;
11076;SDS011;5591;42.626;23.380;2022-12-08T13:07:23;11.90;;;9.10;;
11076;SDS011;5591;42.626;23.380;2022-12-08T13:09:54;11.83;;;9.00;;
11076;SDS011;5591;42.626;23.380;2022-12-08T13:12:23;12.07;;;8.90;;
11076;SDS011;5591;42.626;23.380;2022-12-08T13:14:54;14.50;;;9.03;;
11076;SDS011;5591;42.626;23.380;2022-12-08T13:17:26;13.20;;;9.27;;
11076;SDS011;5591;42.626;23.380;2022-12-08T13:19:56;17.17;;;10.53;;
11076;SDS011;5591;42.626;23.380;2022-12-08T13:28:18;12.97;;;9.23;;
11076;SDS011;5591;42.626;23.380;2022-12-08T13:30:49;14.40;;;9.60;;
11076;SDS011;5591;42.626;23.380;2022-12-08T13:33:17;18.23;;;9.87;;
11076;SDS011;5591;42.626;23.380;2022-12-08T13:35:50;14.27;;;9.60;;
11076;SDS011;5591;42.626;23.380;2022-12-08T13:38:26;12.30;;;9.70;;
11076;SDS011;5591;42.626;23.380;2022-12-08T13:40:56;13.73;;;9.80;;
11076;SDS011;5591;42.626;23.380;2022-12-08T13:43:29;11.93;;;9.50;;
11076;SDS011;5591;42.626;23.380;2022-12-08T13:46:02;13.53;;;9.67;;
11076;SDS011;5591;42.626;23.380;2022-12-08T13:48:35;15.23;;;9.83;;
11076;SDS011;5591;42.626;23.380;2022-12-08T13:51:12;20.10;;;10.17;;
11076;SDS011;5591;42.626;23.380;2022-12-08T13:53:42;14.57;;;10.20;;
11076;SDS011;5591;42.626;23.380;2022-12-08T13:56:18;17.77;;;10.70;;
11076;SDS011;5591;42.626;23.380;2022-12-08T13:58:46;19.63;;;10.33;;
11076;SDS011;5591;42.626;23.380;2022-12-08T14:01:15;19.73;;;10.63;;
11076;SDS011;5591;42.626;23.380;2022-12-08T14:03:46;19.90;;;10.40;;
11076;SDS011;5591;42.626;23.380;2022-12-08T14:06:17;23.47;;;12.40;;
11076;SDS011;5591;42.626;23.380;2022-12-08T14:08:45;19.53;;;12.60;;
11076;SDS011;5591;42.626;23.380;2022-12-08T14:11:20;17.03;;;12.33;;
11076;SDS011;5591;42.626;23.380;2022-12-08T14:13:59;20.80;;;12.47;;
11076;SDS011;5591;42.626;23.380;2022-12-08T14:16:37;21.73;;;12.20;;
11076;SDS011;5591;42.626;23.380;2022-12-08T14:19:06;23.20;;;12.70;;
11076;SDS011;5591;42.626;23.380;2022-12-08T14:21:44;20.83;;;12.83;;
11076;SDS011;5591;42.626;23.380;2022-12-08T14:24:12;22.13;;;12.00;;
11076;SDS011;5591;42.626;23.380;2022-12-08T14:26:39;18.37;;;12.67;;
11076;SDS011;5591;42.626;23.380;2022-12-08T14:29:06;23.07;;;13.33;;
11076;SDS011;5591;42.626;23.380;2022-12-08T14:31:33;25.93;;;14.47;;
11076;SDS011;5591;42.626;23.380;2022-12-08T14:34:01;19.93;;;12.77;;
11076;SDS011;5591;42.626;23.380;2022-12-08T14:36:28;24.40;;;12.83;;
11076;SDS011;5591;42.626;23.380;2022-12-08T14:38:57;21.90;;;13.23;;
11076;SDS011;5591;42.626;23.380;2022-12-08T14:41:24;20.93;;;13.43;;
11076;SDS011;5591;42.626;23.380;2022-12-08T14:43:58;22.33;;;13.50;;
11076;SDS011;5591;42.626;23.380;2022-12-08T14:46:26;24.07;;;13.17;;
11076;SDS011;5591;42.626;23.380;2022-12-08T14:48:52;29.17;;;15.53;;
11076;SDS011;5591;42.626;23.380;2022-12-08T14:51:24;21.47;;;13.43;;
11076;SDS011;5591;42.626;23.380;2022-12-08T14:53:54;19.07;;;12.93;;
11076;SDS011;5591;42.626;23.380;2022-12-08T14:56:24;28.27;;;15.00;;